Terminal Aerodrome Forecast
Issued by NWS

Home | Current Version | Previous Version | Text Only | Print | Product List | Glossary On
Versions: 1 2 3 4 5 6 7 8 9 10 11 12 13 14 15 16 17 18 19 20 21 22 23 24 25 26 27 28 29 30
000
FTUS43 KPAH 262352 CCA
TAFOWB
TAF COR
KOWB 262352Z 2700/2724 23005KT P6SM SCT050 BKN090 OVC300
     FM270500 22006KT P6SM -SHRA SCT060 BKN130
      TEMPO 2709/2712 VRB05KT 6SM -TSRA BR BKN040CB
     FM271200 VRB05KT 4SM -SHRA BR BKN050
     FM272100 18005KT P6SM -SHRA BKN020 OVC030=

USA.gov is the U.S. government's official web portal to all federal, state and local government web resources and services.